Time;durP1;ratioP1;P1;durP2;ratioP2;P2;SDS_P1;SDS_P2;PMS_P1;PMS_P2;Temp;Humidity;BMP_temperature;BMP_pressure;BME280_temperature;BME280_humidity;BME280_pressure;Samples;Min_cycle;Max_cycle;Signal;HPM_P1;HPM_P2
2022/08/27 00:06:55;;;;;;;10.15;3.53;;;25.90;49.80;;;;;;21001267;28;20458;-59
2022/08/27 00:16:56;;;;;;;;;;;25.90;50.40;;;;;;21010846;28;20124;-58
2022/08/27 00:26:58;;;;;;;5.90;2.55;;;25.70;49.80;;;;;;21008072;28;19946;-58
2022/08/27 00:36:59;;;;;;;5.15;2.63;;;25.60;49.10;;;;;;21007745;28;20049;-58
2022/08/27 00:47:05;;;;;;;4.60;2.70;;;25.50;48.60;;;;;;21006784;28;20527;-57
2022/08/27 00:57:06;;;;;;;8.45;2.95;;;25.30;49.00;;;;;;21006836;28;20048;-57
2022/08/27 01:07:09;;;;;;;;;;;25.40;50.20;;;;;;21006582;28;20141;-58
2022/08/27 01:17:12;;;;;;;5.57;3.17;;;25.10;50.90;;;;;;21004877;28;20451;-58
2022/08/27 01:27:18;;;;;;;5.38;3.10;;;25.10;51.50;;;;;;21003551;28;20048;-58
2022/08/27 01:37:22;;;;;;;7.13;3.03;;;25.00;51.60;;;;;;21003992;28;20109;-57
2022/08/27 01:47:27;;;;;;;9.73;3.55;;;25.00;51.70;;;;;;21002956;28;20052;-56
2022/08/27 01:57:29;;;;;;;8.88;3.13;;;24.90;52.10;;;;;;21002453;28;20055;-57
2022/08/27 02:07:33;;;;;;;7.25;3.33;;;24.80;52.30;;;;;;21000078;28;20040;-57
2022/08/27 02:17:35;;;;;;;6.80;3.63;;;24.70;52.50;;;;;;21000078;28;20484;-57
2022/08/27 02:27:41;;;;;;;9.68;3.45;;;24.70;52.30;;;;;;20997439;28;20048;-57
2022/08/27 02:37:45;;;;;;;9.43;3.33;;;24.60;52.30;;;;;;20997498;28;20147;-58
2022/08/27 02:47:47;;;;;;;7.85;3.30;;;24.50;52.40;;;;;;20996917;28;20059;-57
2022/08/27 02:57:50;;;;;;;6.25;3.17;;;24.40;52.40;;;;;;20996823;28;20516;-57
2022/08/27 03:07:53;;;;;;;4.97;3.10;;;24.30;52.90;;;;;;20995999;28;20045;-57
2022/08/27 03:28:17;;;;;;;9.60;3.50;;;24.30;52.70;;;;;;20995043;28;20413;-57
2022/08/27 03:38:19;;;;;;;7.38;4.68;;;24.30;53.10;;;;;;20994060;28;20143;-57
2022/08/27 03:48:21;;;;;;;7.70;4.35;;;24.50;52.80;;;;;;20994693;28;20405;-56
2022/08/27 03:58:23;;;;;;;8.90;4.05;;;24.50;52.90;;;;;;20993682;28;20052;-57
2022/08/27 04:08:26;;;;;;;7.20;3.65;;;24.50;52.80;;;;;;20993079;28;20052;-57
2022/08/27 04:18:28;;;;;;;8.45;3.30;;;24.50;52.90;;;;;;20992908;28;20447;-57
2022/08/27 04:28:30;;;;;;;10.65;3.33;;;24.30;53.00;;;;;;20992963;28;20041;-57
2022/08/27 04:38:33;;;;;;;8.02;3.45;;;24.20;53.20;;;;;;20991667;28;20052;-57
2022/08/27 04:48:38;;;;;;;7.30;3.78;;;24.00;53.60;;;;;;20992797;28;20048;-57
2022/08/27 04:58:39;;;;;;;11.93;4.20;;;23.90;53.60;;;;;;21005783;28;20049;-58
2022/08/27 05:08:42;;;;;;;7.20;3.50;;;23.80;53.90;;;;;;21005120;28;20105;-58
2022/08/27 05:18:44;;;;;;;8.55;3.60;;;23.70;54.10;;;;;;21004793;28;20384;-59
2022/08/27 05:28:47;;;;;;;;;;;23.60;54.10;;;;;;21004080;28;20045;-57
2022/08/27 05:38:49;;;;;;;10.07;4.20;;;23.30;54.50;;;;;;21003254;28;20403;-57
2022/08/27 05:48:54;;;;;;;5.78;3.70;;;23.20;54.70;;;;;;21002910;28;20447;-57
2022/08/27 06:09:22;;;;;;;4.88;3.72;;;23.40;53.50;;;;;;21000442;28;20075;-57
2022/08/27 06:19:24;;;;;;;9.88;4.05;;;23.40;52.50;;;;;;21000484;28;20055;-57
2022/08/27 06:29:26;;;;;;;7.13;3.47;;;23.50;52.20;;;;;;20998971;28;20075;-57
2022/08/27 06:39:28;;;;;;;4.57;3.90;;;23.60;51.80;;;;;;20998224;28;20087;-57
2022/08/27 06:49:32;;;;;;;13.65;4.60;;;23.60;51.60;;;;;;20998054;28;20063;-59
2022/08/27 06:59:33;;;;;;;7.68;3.72;;;23.70;51.50;;;;;;20996520;28;20099;-57
2022/08/27 07:09:35;;;;;;;8.43;4.10;;;23.70;51.30;;;;;;20996161;28;20412;-59
2022/08/27 07:19:37;;;;;;;7.77;3.83;;;24.00;50.50;;;;;;20995548;28;20131;-58
2022/08/27 07:29:39;;;;;;;5.87;3.83;;;24.50;49.60;;;;;;20995392;28;20067;-57
2022/08/27 07:39:41;;;;;;;9.07;4.30;;;24.70;48.90;;;;;;20994393;28;20320;-58
2022/08/27 07:49:43;;;;;;;8.55;4.68;;;24.90;48.60;;;;;;20995033;28;20097;-57
2022/08/27 07:59:47;;;;;;;7.22;3.90;;;25.10;48.20;;;;;;20994049;28;20048;-58
2022/08/27 08:09:48;;;;;;;5.80;3.60;;;25.50;47.50;;;;;;20993012;28;20051;-57
2022/08/27 08:19:52;;;;;;;8.95;4.68;;;25.60;47.00;;;;;;20993376;28;20087;-58
2022/08/27 08:29:54;;;;;;;8.18;3.88;;;25.70;46.80;;;;;;21002776;28;20459;-59
2022/08/27 08:39:55;;;;;;;8.07;3.70;;;25.90;45.70;;;;;;21008272;28;20148;-56
2022/08/27 08:50:04;;;;;;;;;;;26.10;45.20;;;;;;21008219;28;20055;-57
2022/08/27 09:00:13;;;;;;;7.75;4.03;;;26.20;44.50;;;;;;21006041;28;19920;-58
2022/08/27 09:10:27;;;;;;;7.20;3.53;;;26.50;43.80;;;;;;21005009;28;20084;-58
2022/08/27 09:20:30;;;;;;;7.43;3.03;;;26.70;43.40;;;;;;21004310;28;20044;-58
2022/08/27 09:30:42;;;;;;;6.28;3.10;;;26.90;43.00;;;;;;21003487;28;20102;-57
2022/08/27 09:40:50;;;;;;;5.25;3.20;;;27.10;42.30;;;;;;21002665;28;20052;-58
2022/08/27 09:51:05;;;;;;;7.28;2.72;;;27.20;42.20;;;;;;21003327;28;20392;-58
2022/08/27 10:01:16;;;;;;;3.33;2.40;;;27.50;40.40;;;;;;21001674;28;20124;-58
2022/08/27 10:11:36;;;;;;;4.27;2.50;;;27.60;39.70;;;;;;21000702;28;20048;-56
2022/08/27 10:22:11;;;;;;;5.88;3.78;;;27.80;39.50;;;;;;20999369;28;20048;-59
2022/08/27 10:32:51;;;;;;;3.85;2.60;;;28.10;39.00;;;;;;20996354;28;20056;-57
2022/08/27 10:43:20;;;;;;;5.72;2.92;;;28.20;38.40;;;;;;20823395;28;20130;-56
2022/08/27 10:53:31;;;;;;;11.25;6.82;;;28.30;38.40;;;;;;20821683;28;20371;-58
2022/08/27 11:03:44;;;;;;;6.45;3.10;;;28.60;37.60;;;;;;20821921;28;20128;-56
2022/08/27 11:13:51;;;;;;;6.10;2.80;;;28.90;36.90;;;;;;20878289;28;20574;-57
2022/08/27 11:23:57;;;;;;;7.22;2.75;;;29.10;36.70;;;;;;20994898;28;20053;-57
2022/08/27 11:34:04;;;;;;;6.32;3.00;;;29.30;36.40;;;;;;20993014;28;20048;-56
2022/08/27 11:44:06;;;;;;;4.93;2.50;;;29.40;36.60;;;;;;20993823;28;20056;-58
2022/08/27 11:54:20;;;;;;;8.20;2.60;;;29.60;35.70;;;;;;20993174;28;20110;-58
2022/08/27 12:04:36;;;;;;;6.32;2.58;;;29.90;34.70;;;;;;21004535;28;20139;-57
2022/08/27 12:14:50;;;;;;;3.80;2.17;;;29.80;34.90;;;;;;21009402;28;20052;-58
2022/08/27 12:24:54;;;;;;;7.95;2.67;;;30.10;34.30;;;;;;21008862;28;20102;-57
2022/08/27 12:35:02;;;;;;;2.65;2.08;;;30.30;34.30;;;;;;21007675;28;20045;-58
2022/08/27 12:45:04;;;;;;;3.92;2.13;;;30.40;33.90;;;;;;21007574;28;20110;-58
2022/08/27 12:55:39;;;;;;;5.38;2.47;;;30.80;32.70;;;;;;21005147;28;20045;-57
2022/08/27 13:05:46;;;;;;;4.55;2.05;;;31.10;32.20;;;;;;21004417;28;20135;-59
2022/08/27 13:15:57;;;;;;;4.15;2.15;;;31.20;31.80;;;;;;21004786;28;20118;-58
2022/08/27 13:26:07;;;;;;;2.60;1.90;;;30.90;32.70;;;;;;21003631;28;20045;-57
2022/08/27 13:36:09;;;;;;;4.38;3.15;;;31.30;31.50;;;;;;21004332;28;20059;-59
2022/08/27 13:46:31;;;;;;;5.15;2.38;;;31.70;30.60;;;;;;21002447;28;20086;-58
2022/08/27 13:56:46;;;;;;;3.20;1.90;;;31.90;30.30;;;;;;21002028;28;20132;-61
2022/08/27 14:06:48;;;;;;;3.78;2.00;;;31.90;30.40;;;;;;21000076;28;20048;-58
2022/08/27 14:16:59;;;;;;;2.90;1.80;;;32.10;28.80;;;;;;21000891;28;20521;-58
2022/08/27 14:27:09;;;;;;;3.85;2.17;;;32.20;28.20;;;;;;20998709;28;20071;-58
2022/08/27 14:37:11;;;;;;;;;;;32.20;28.00;;;;;;20999285;28;20048;-58
2022/08/27 14:47:14;;;;;;;3.65;1.73;;;32.40;27.60;;;;;;20997792;28;19990;-58
2022/08/27 14:57:16;;;;;;;4.10;1.45;;;32.60;28.00;;;;;;20997541;28;20102;-58
2022/08/27 15:07:18;;;;;;;6.35;2.60;;;32.70;27.80;;;;;;20996544;28;20453;-58
2022/08/27 15:17:21;;;;;;;5.45;1.80;;;32.70;27.60;;;;;;20997604;28;20048;-57
2022/08/27 15:27:25;;;;;;;3.25;1.70;;;32.80;27.70;;;;;;20997421;28;20495;-58
2022/08/27 15:37:27;;;;;;;5.20;2.10;;;32.80;27.70;;;;;;20994451;28;20462;-57
2022/08/27 15:47:28;;;;;;;4.18;1.92;;;32.80;27.60;;;;;;20993965;28;20095;-58
2022/08/27 15:57:30;;;;;;;4.38;2.05;;;32.50;27.90;;;;;;20993962;28;20144;-58
2022/08/27 16:07:31;;;;;;;4.95;3.60;;;32.50;27.50;;;;;;20993255;28;20132;-57
2022/08/27 16:17:34;;;;;;;3.13;1.75;;;32.50;27.80;;;;;;20992961;28;20099;-58
2022/08/27 16:27:36;;;;;;;4.88;2.40;;;32.40;27.60;;;;;;20993254;28;20067;-59
2022/08/27 16:37:37;;;;;;;3.00;1.33;;;32.50;27.10;;;;;;20992140;28;20071;-58
2022/08/27 16:50:32;;;;;;;3.17;1.73;;;32.30;27.00;;;;;;20997030;28;20052;-59
2022/08/27 16:58:07;;;;;;;3.72;2.13;;;32.20;27.70;;;;;;21006915;28;20055;-58
2022/08/27 17:08:09;;;;;;;2.83;2.30;;;32.10;27.80;;;;;;21006448;28;20403;-59
2022/08/27 17:18:10;;;;;;;3.00;1.80;;;32.10;28.10;;;;;;21004762;28;20053;-57
2022/08/27 17:28:12;;;;;;;4.55;2.35;;;32.00;27.40;;;;;;21005911;28;20545;-58
2022/08/27 17:38:14;;;;;;;4.15;2.60;;;32.00;27.40;;;;;;21005540;28;20441;-59
2022/08/27 17:48:16;;;;;;;2.97;1.90;;;31.90;27.70;;;;;;21003055;28;20052;-59
2022/08/27 17:58:19;;;;;;;6.47;1.95;;;31.70;27.80;;;;;;21003070;28;20051;-59
2022/08/27 18:08:20;;;;;;;4.88;2.65;;;31.60;27.40;;;;;;21001691;28;20048;-58
2022/08/27 18:18:22;;;;;;;5.68;2.70;;;31.50;28.00;;;;;;21000968;28;20111;-58
2022/08/27 18:28:24;;;;;;;5.25;2.92;;;31.40;27.90;;;;;;20999484;28;20040;-57
2022/08/27 18:38:26;;;;;;;7.60;2.42;;;31.30;28.00;;;;;;20999328;28;20390;-58
2022/08/27 18:48:28;;;;;;;6.57;4.00;;;31.10;28.20;;;;;;20998006;28;20052;-59
2022/08/27 18:58:29;;;;;;;6.28;4.18;;;31.10;28.40;;;;;;20997208;28;20102;-58
2022/08/27 19:08:31;;;;;;;4.97;3.92;;;30.90;29.10;;;;;;20996439;28;20125;-57
2022/08/27 19:18:35;;;;;;;11.23;6.72;;;30.80;28.90;;;;;;20995854;28;20110;-58
2022/08/27 19:28:39;;;;;;;35.25;26.70;;;30.60;29.20;;;;;;20995342;28;20127;-59
2022/08/27 19:38:41;;;;;;;22.33;17.08;;;30.60;29.30;;;;;;20994288;28;20048;-58
2022/08/27 19:48:42;;;;;;;15.88;10.82;;;30.40;29.60;;;;;;20995225;28;20053;-58
2022/08/27 19:58:44;;;;;;;10.27;8.48;;;30.30;29.70;;;;;;20994973;28;20048;-58
2022/08/27 20:08:46;;;;;;;14.75;10.13;;;30.20;29.40;;;;;;20994160;28;20049;-60
2022/08/27 20:18:48;;;;;;;11.48;8.10;;;30.10;29.80;;;;;;20995373;28;20476;-61
2022/08/27 20:28:52;;;;;;;12.30;5.90;;;30.00;29.60;;;;;;21010736;28;20044;-61
2022/08/27 20:39:00;;;;;;;9.63;5.28;;;29.90;29.80;;;;;;21009915;28;20048;-59
2022/08/27 20:49:04;;;;;;;12.38;6.60;;;29.90;30.30;;;;;;21008420;28;20174;-60
2022/08/27 21:09:27;;;;;;;17.33;9.13;;;29.50;31.90;;;;;;21007919;28;20059;-59
2022/08/27 21:19:29;;;;;;;16.27;8.75;;;29.20;33.80;;;;;;21008002;28;20087;-58
2022/08/27 21:29:31;;;;;;;16.05;10.20;;;28.90;34.60;;;;;;21007313;28;20485;-58
2022/08/27 21:39:34;;;;;;;7.45;4.68;;;28.70;35.30;;;;;;21005840;28;20576;-59
2022/08/27 21:49:36;;;;;;;25.58;6.55;;;28.40;35.10;;;;;;21004971;28;20489;-58
2022/08/27 21:59:40;;;;;;;9.98;5.82;;;28.10;35.40;;;;;;21005277;28;20499;-57
2022/08/27 22:09:42;;;;;;;8.95;4.70;;;28.00;35.70;;;;;;21003215;28;20059;-58
2022/08/27 22:19:46;;;;;;;6.93;4.13;;;27.70;36.10;;;;;;21001301;28;20135;-58
2022/08/27 22:29:47;;;;;;;9.15;4.30;;;27.70;36.10;;;;;;21000215;28;20048;-58
2022/08/27 22:39:50;;;;;;;8.15;4.95;;;27.60;35.90;;;;;;20999366;28;20417;-58
2022/08/27 22:49:52;;;;;;;8.20;3.47;;;27.50;36.10;;;;;;20997170;28;20420;-59
2022/08/27 22:59:54;;;;;;;4.57;2.70;;;27.70;36.40;;;;;;20997595;28;20050;-57
2022/08/27 23:09:55;;;;;;;5.78;2.72;;;27.80;39.60;;;;;;20996642;28;20048;-57
2022/08/27 23:19:57;;;;;;;8.05;2.80;;;27.80;42.70;;;;;;20994648;28;20090;-58
2022/08/27 23:30:01;;;;;;;10.70;3.35;;;27.80;44.30;;;;;;20995817;28;20361;-57
2022/08/27 23:40:06;;;;;;;7.32;3.85;;;27.80;46.20;;;;;;20995160;28;20054;-59
2022/08/27 23:50:09;;;;;;;5.38;2.92;;;27.70;48.20;;;;;;20994992;28;20124;-58
